sensor_id;sensor_type;location;lat;lon;timestamp;pressure;altitude;pressure_sealevel;temperature
74750;BMP280;63269;53.330;-6.288;2023-07-31T00:01:27;100006.69;;;23.05
74750;BMP280;63269;53.330;-6.288;2023-07-31T00:03:52;100006.69;;;23.05
74750;BMP280;63269;53.330;-6.288;2023-07-31T00:06:17;100007.16;;;23.03
74750;BMP280;63269;53.330;-6.288;2023-07-31T00:08:43;100015.94;;;23.04
74750;BMP280;63269;53.330;-6.288;2023-07-31T00:11:08;100015.94;;;23.04
74750;BMP280;63269;53.330;-6.288;2023-07-31T00:13:34;100003.75;;;23.03
74750;BMP280;63269;53.330;-6.288;2023-07-31T00:15:59;100001.06;;;23.03
74750;BMP280;63269;53.330;-6.288;2023-07-31T00:18:24;100001.06;;;23.03
74750;BMP280;63269;53.330;-6.288;2023-07-31T00:20:50;99997.66;;;23.02
74750;BMP280;63269;53.330;-6.288;2023-07-31T00:23:15;100003.00;;;23.02
74750;BMP280;63269;53.330;-6.288;2023-07-31T00:25:41;99980.13;;;23.01
74750;BMP280;63269;53.330;-6.288;2023-07-31T00:28:07;99980.13;;;23.01
74750;BMP280;63269;53.330;-6.288;2023-07-31T00:30:32;99980.84;;;23.02
74750;BMP280;63269;53.330;-6.288;2023-07-31T00:32:58;99978.19;;;23.02
74750;BMP280;63269;53.330;-6.288;2023-07-31T00:35:23;99978.19;;;23.02
74750;BMP280;63269;53.330;-6.288;2023-07-31T00:37:48;99986.22;;;23.02
74750;BMP280;63269;53.330;-6.288;2023-07-31T00:40:14;99976.00;;;23.00
74750;BMP280;63269;53.330;-6.288;2023-07-31T00:42:39;99976.00;;;23.00
74750;BMP280;63269;53.330;-6.288;2023-07-31T00:45:05;99967.25;;;23.00
74750;BMP280;63269;53.330;-6.288;2023-07-31T00:47:30;99967.25;;;23.00
74750;BMP280;63269;53.330;-6.288;2023-07-31T00:49:56;99977.22;;;22.99
74750;BMP280;63269;53.330;-6.288;2023-07-31T00:52:21;99969.63;;;22.98
74750;BMP280;63269;53.330;-6.288;2023-07-31T00:54:48;99969.63;;;22.98
74750;BMP280;63269;53.330;-6.288;2023-07-31T00:57:14;99975.25;;;23.00
74750;BMP280;63269;53.330;-6.288;2023-07-31T00:59:39;99975.72;;;22.98
74750;BMP280;63269;53.330;-6.288;2023-07-31T01:02:05;99975.72;;;22.98
74750;BMP280;63269;53.330;-6.288;2023-07-31T01:04:30;99994.44;;;22.98
74750;BMP280;63269;53.330;-6.288;2023-07-31T01:09:49;99983.00;;;22.98
74750;BMP280;63269;53.330;-6.288;2023-07-31T01:12:18;99978.88;;;22.97
74750;BMP280;63269;53.330;-6.288;2023-07-31T01:15:01;99984.94;;;22.97
74750;BMP280;63269;53.330;-6.288;2023-07-31T01:17:27;99982.75;;;22.96
74750;BMP280;63269;53.330;-6.288;2023-07-31T01:19:55;99982.75;;;22.96
74750;BMP280;63269;53.330;-6.288;2023-07-31T01:22:45;99972.78;;;22.96
74750;BMP280;63269;53.330;-6.288;2023-07-31T01:28:14;99968.66;;;22.95
74750;BMP280;63269;53.330;-6.288;2023-07-31T01:30:44;99972.06;;;22.96
74750;BMP280;63269;53.330;-6.288;2023-07-31T01:33:12;99967.88;;;22.95
74750;BMP280;63269;53.330;-6.288;2023-07-31T01:35:39;99965.22;;;22.95
74750;BMP280;63269;53.330;-6.288;2023-07-31T01:38:05;99964.03;;;22.96
74750;BMP280;63269;53.330;-6.288;2023-07-31T01:40:31;99964.03;;;22.96
74750;BMP280;63269;53.330;-6.288;2023-07-31T01:42:56;99954.50;;;22.95
74750;BMP280;63269;53.330;-6.288;2023-07-31T01:45:22;99958.69;;;22.96
74750;BMP280;63269;53.330;-6.288;2023-07-31T01:47:47;99958.69;;;22.96
74750;BMP280;63269;53.330;-6.288;2023-07-31T01:50:13;99960.63;;;22.95
74750;BMP280;63269;53.330;-6.288;2023-07-31T01:52:38;99967.44;;;22.96
74750;BMP280;63269;53.330;-6.288;2023-07-31T01:55:04;99967.44;;;22.96
74750;BMP280;63269;53.330;-6.288;2023-07-31T01:57:29;99969.38;;;22.96
74750;BMP280;63269;53.330;-6.288;2023-07-31T01:59:55;99965.50;;;22.97
74750;BMP280;63269;53.330;-6.288;2023-07-31T02:02:22;99965.50;;;22.97
74750;BMP280;63269;53.330;-6.288;2023-07-31T02:04:48;99966.22;;;22.97
74750;BMP280;63269;53.330;-6.288;2023-07-31T02:07:14;99978.88;;;22.97
74750;BMP280;63269;53.330;-6.288;2023-07-31T02:09:39;99978.88;;;22.97
74750;BMP280;63269;53.330;-6.288;2023-07-31T02:12:05;99980.81;;;22.96
74750;BMP280;63269;53.330;-6.288;2023-07-31T02:14:30;99980.81;;;22.96
74750;BMP280;63269;53.330;-6.288;2023-07-31T02:16:55;99980.81;;;22.96
74750;BMP280;63269;53.330;-6.288;2023-07-31T02:19:21;99978.13;;;22.96
74750;BMP280;63269;53.330;-6.288;2023-07-31T02:21:46;99983.00;;;22.98
74750;BMP280;63269;53.330;-6.288;2023-07-31T02:24:12;99983.00;;;22.98
74750;BMP280;63269;53.330;-6.288;2023-07-31T02:26:37;99984.47;;;22.99
74750;BMP280;63269;53.330;-6.288;2023-07-31T02:29:02;99981.56;;;22.97
74750;BMP280;63269;53.330;-6.288;2023-07-31T02:31:28;99966.94;;;22.98
74750;BMP280;63269;53.330;-6.288;2023-07-31T02:33:54;99966.94;;;22.98
74750;BMP280;63269;53.330;-6.288;2023-07-31T02:36:19;99963.53;;;22.97
74750;BMP280;63269;53.330;-6.288;2023-07-31T02:38:44;99963.53;;;22.97
74750;BMP280;63269;53.330;-6.288;2023-07-31T02:41:10;99965.97;;;22.95
74750;BMP280;63269;53.330;-6.288;2023-07-31T02:43:35;99977.41;;;22.96
74750;BMP280;63269;53.330;-6.288;2023-07-31T02:46:01;99966.22;;;22.97
74750;BMP280;63269;53.330;-6.288;2023-07-31T02:48:26;99960.63;;;22.95
74750;BMP280;63269;53.330;-6.288;2023-07-31T02:50:51;99956.72;;;22.96
74750;BMP280;63269;53.330;-6.288;2023-07-31T02:53:17;99964.03;;;22.96
74750;BMP280;63269;53.330;-6.288;2023-07-31T02:55:42;99967.44;;;22.96
74750;BMP280;63269;53.330;-6.288;2023-07-31T02:58:08;99971.56;;;22.97
74750;BMP280;63269;53.330;-6.288;2023-07-31T03:00:33;99957.50;;;22.97
74750;BMP280;63269;53.330;-6.288;2023-07-31T03:02:58;99957.50;;;22.97
74750;BMP280;63269;53.330;-6.288;2023-07-31T03:05:24;99953.31;;;22.96
74750;BMP280;63269;53.330;-6.288;2023-07-31T03:07:49;99946.03;;;22.96
74750;BMP280;63269;53.330;-6.288;2023-07-31T03:10:15;99946.03;;;22.96
74750;BMP280;63269;53.330;-6.288;2023-07-31T03:12:40;99950.66;;;22.96
74750;BMP280;63269;53.330;-6.288;2023-07-31T03:15:06;99960.16;;;22.97
74750;BMP280;63269;53.330;-6.288;2023-07-31T03:17:32;99959.41;;;22.96
74750;BMP280;63269;53.330;-6.288;2023-07-31T03:19:57;99959.41;;;22.96
74750;BMP280;63269;53.330;-6.288;2023-07-31T03:22:23;99954.81;;;22.97
74750;BMP280;63269;53.330;-6.288;2023-07-31T03:24:48;99954.81;;;22.97
74750;BMP280;63269;53.330;-6.288;2023-07-31T03:27:14;99954.81;;;22.97
74750;BMP280;63269;53.330;-6.288;2023-07-31T03:29:39;99949.47;;;22.97
74750;BMP280;63269;53.330;-6.288;2023-07-31T03:32:05;99946.50;;;22.95
74750;BMP280;63269;53.330;-6.288;2023-07-31T03:34:30;99946.50;;;22.95
74750;BMP280;63269;53.330;-6.288;2023-07-31T03:36:57;99937.28;;;22.96
74750;BMP280;63269;53.330;-6.288;2023-07-31T03:39:23;99946.78;;;22.97
74750;BMP280;63269;53.330;-6.288;2023-07-31T03:41:48;99933.41;;;22.97
74750;BMP280;63269;53.330;-6.288;2023-07-31T03:44:14;99943.38;;;22.96
74750;BMP280;63269;53.330;-6.288;2023-07-31T03:46:39;99934.13;;;22.97
74750;BMP280;63269;53.330;-6.288;2023-07-31T03:49:05;99934.13;;;22.97
74750;BMP280;63269;53.330;-6.288;2023-07-31T03:51:30;99921.97;;;22.96
74750;BMP280;63269;53.330;-6.288;2023-07-31T03:53:56;99919.28;;;22.96
74750;BMP280;63269;53.330;-6.288;2023-07-31T03:56:21;99914.41;;;22.95
74750;BMP280;63269;53.330;-6.288;2023-07-31T03:58:47;99919.75;;;22.95
74750;BMP280;63269;53.330;-6.288;2023-07-31T04:01:13;99921.25;;;22.96
74750;BMP280;63269;53.330;-6.288;2023-07-31T04:03:38;99921.25;;;22.96
74750;BMP280;63269;53.330;-6.288;2023-07-31T04:06:03;99928.53;;;22.95
74750;BMP280;63269;53.330;-6.288;2023-07-31T04:08:29;99919.28;;;22.96
74750;BMP280;63269;53.330;-6.288;2023-07-31T04:10:54;99919.28;;;22.96
74750;BMP280;63269;53.330;-6.288;2023-07-31T04:13:21;99922.44;;;22.95
74750;BMP280;63269;53.330;-6.288;2023-07-31T04:15:50;99924.38;;;22.94
74750;BMP280;63269;53.330;-6.288;2023-07-31T04:18:16;99926.59;;;22.96
74750;BMP280;63269;53.330;-6.288;2023-07-31T04:20:41;99934.59;;;22.96
74750;BMP280;63269;53.330;-6.288;2023-07-31T04:23:07;99935.78;;;22.95
74750;BMP280;63269;53.330;-6.288;2023-07-31T04:25:32;99952.59;;;22.95
74750;BMP280;63269;53.330;-6.288;2023-07-31T04:28:00;99961.81;;;22.94
74750;BMP280;63269;53.330;-6.288;2023-07-31T04:30:25;99960.63;;;22.95
74750;BMP280;63269;53.330;-6.288;2023-07-31T04:32:50;99960.63;;;22.95
74750;BMP280;63269;53.330;-6.288;2023-07-31T04:35:16;99960.63;;;22.95
74750;BMP280;63269;53.330;-6.288;2023-07-31T04:37:41;99951.38;;;22.96
74750;BMP280;63269;53.330;-6.288;2023-07-31T04:40:07;99951.38;;;22.96
74750;BMP280;63269;53.330;-6.288;2023-07-31T04:42:33;99939.22;;;22.95
74750;BMP280;63269;53.330;-6.288;2023-07-31T04:44:59;99945.31;;;22.96
74750;BMP280;63269;53.330;-6.288;2023-07-31T04:47:25;99945.31;;;22.96
74750;BMP280;63269;53.330;-6.288;2023-07-31T04:49:50;99934.59;;;22.96
74750;BMP280;63269;53.330;-6.288;2023-07-31T04:52:15;99934.59;;;22.96
74750;BMP280;63269;53.330;-6.288;2023-07-31T04:54:41;99929.25;;;22.96
74750;BMP280;63269;53.330;-6.288;2023-07-31T04:57:06;99928.53;;;22.95
74750;BMP280;63269;53.330;-6.288;2023-07-31T04:59:32;99938.00;;;22.96
74750;BMP280;63269;53.330;-6.288;2023-07-31T05:01:57;99938.00;;;22.96
74750;BMP280;63269;53.330;-6.288;2023-07-31T05:04:22;99940.41;;;22.94
74750;BMP280;63269;53.330;-6.288;2023-07-31T05:06:48;99961.34;;;22.96
74750;BMP280;63269;53.330;-6.288;2023-07-31T05:09:13;99961.34;;;22.96
74750;BMP280;63269;53.330;-6.288;2023-07-31T05:11:39;99965.97;;;22.95
74750;BMP280;63269;53.330;-6.288;2023-07-31T05:14:05;99961.81;;;22.94
74750;BMP280;63269;53.330;-6.288;2023-07-31T05:16:31;99958.41;;;22.94
74750;BMP280;63269;53.330;-6.288;2023-07-31T05:18:56;99960.63;;;22.95
74750;BMP280;63269;53.330;-6.288;2023-07-31T05:21:22;99965.97;;;22.95
74750;BMP280;63269;53.330;-6.288;2023-07-31T05:23:47;99965.97;;;22.95
74750;BMP280;63269;53.330;-6.288;2023-07-31T05:26:13;99964.47;;;22.94
74750;BMP280;63269;53.330;-6.288;2023-07-31T05:28:38;99963.28;;;22.95
74750;BMP280;63269;53.330;-6.288;2023-07-31T05:31:05;99963.28;;;22.95
74750;BMP280;63269;53.330;-6.288;2023-07-31T05:33:30;99959.13;;;22.94
74750;BMP280;63269;53.330;-6.288;2023-07-31T05:35:56;99951.84;;;22.95
74750;BMP280;63269;53.330;-6.288;2023-07-31T05:38:21;99957.94;;;22.95
74750;BMP280;63269;53.330;-6.288;2023-07-31T05:40:47;99957.94;;;22.95
74750;BMP280;63269;53.330;-6.288;2023-07-31T05:43:13;99944.56;;;22.95
74750;BMP280;63269;53.330;-6.288;2023-07-31T05:45:39;99938.47;;;22.95
74750;BMP280;63269;53.330;-6.288;2023-07-31T05:48:05;99951.13;;;22.94
74750;BMP280;63269;53.330;-6.288;2023-07-31T05:50:31;99944.28;;;22.93
74750;BMP280;63269;53.330;-6.288;2023-07-31T05:52:57;99949.16;;;22.95
74750;BMP280;63269;53.330;-6.288;2023-07-31T05:55:22;99941.16;;;22.95
74750;BMP280;63269;53.330;-6.288;2023-07-31T05:57:48;99948.44;;;22.94
74750;BMP280;63269;53.330;-6.288;2023-07-31T06:00:14;99949.16;;;22.95
74750;BMP280;63269;53.330;-6.288;2023-07-31T06:02:40;99959.88;;;22.95
74750;BMP280;63269;53.330;-6.288;2023-07-31T06:05:06;99959.88;;;22.95
74750;BMP280;63269;53.330;-6.288;2023-07-31T06:07:32;99938.47;;;22.95
74750;BMP280;63269;53.330;-6.288;2023-07-31T06:09:57;99938.47;;;22.95
74750;BMP280;63269;53.330;-6.288;2023-07-31T06:12:30;99924.38;;;22.94
74750;BMP280;63269;53.330;-6.288;2023-07-31T06:14:56;99917.84;;;22.95
74750;BMP280;63269;53.330;-6.288;2023-07-31T06:17:22;99924.38;;;22.94
74750;BMP280;63269;53.330;-6.288;2023-07-31T06:19:47;99931.66;;;22.94
74750;BMP280;63269;53.330;-6.288;2023-07-31T06:22:12;99931.66;;;22.94
74750;BMP280;63269;53.330;-6.288;2023-07-31T06:24:38;99906.84;;;22.93
74750;BMP280;63269;53.330;-6.288;2023-07-31T06:27:04;99906.84;;;22.93
74750;BMP280;63269;53.330;-6.288;2023-07-31T06:29:31;99906.13;;;22.93
74750;BMP280;63269;53.330;-6.288;2023-07-31T06:31:56;99899.56;;;22.94
74750;BMP280;63269;53.330;-6.288;2023-07-31T06:34:22;99897.63;;;22.94
74750;BMP280;63269;53.330;-6.288;2023-07-31T06:36:47;99896.91;;;22.94
74750;BMP280;63269;53.330;-6.288;2023-07-31T06:39:12;99896.91;;;22.94
74750;BMP280;63269;53.330;-6.288;2023-07-31T06:41:38;99906.13;;;22.93
74750;BMP280;63269;53.330;-6.288;2023-07-31T06:44:04;99913.41;;;22.92
74750;BMP280;63269;53.330;-6.288;2023-07-31T06:46:29;99923.63;;;22.94
74750;BMP280;63269;53.330;-6.288;2023-07-31T06:48:54;99933.59;;;22.93
74750;BMP280;63269;53.330;-6.288;2023-07-31T06:51:20;99933.59;;;22.93
74750;BMP280;63269;53.330;-6.288;2023-07-31T06:53:46;99943.09;;;22.94
74750;BMP280;63269;53.330;-6.288;2023-07-31T06:56:11;99943.09;;;22.94
74750;BMP280;63269;53.330;-6.288;2023-07-31T06:58:37;99934.34;;;22.94
74750;BMP280;63269;53.330;-6.288;2023-07-31T07:01:02;99930.91;;;22.93
74750;BMP280;63269;53.330;-6.288;2023-07-31T07:03:28;99930.91;;;22.93
74750;BMP280;63269;53.330;-6.288;2023-07-31T07:05:53;99924.09;;;22.92
74750;BMP280;63269;53.330;-6.288;2023-07-31T07:08:19;99906.84;;;22.93
74750;BMP280;63269;53.330;-6.288;2023-07-31T07:10:44;99909.50;;;22.93
74750;BMP280;63269;53.330;-6.288;2023-07-31T07:13:09;99896.63;;;22.92
74750;BMP280;63269;53.330;-6.288;2023-07-31T07:15:35;99905.84;;;22.91
74750;BMP280;63269;53.330;-6.288;2023-07-31T07:18:00;99897.34;;;22.92
74750;BMP280;63269;53.330;-6.288;2023-07-31T07:20:26;99905.38;;;22.92
74750;BMP280;63269;53.330;-6.288;2023-07-31T07:22:51;99910.94;;;22.89
74750;BMP280;63269;53.330;-6.288;2023-07-31T07:25:16;99912.69;;;22.92
74750;BMP280;63269;53.330;-6.288;2023-07-31T07:27:42;99924.56;;;22.91
74750;BMP280;63269;53.330;-6.288;2023-07-31T07:30:07;99919.97;;;22.91
74750;BMP280;63269;53.330;-6.288;2023-07-31T07:32:33;99921.44;;;22.92
74750;BMP280;63269;53.330;-6.288;2023-07-31T07:34:59;99924.84;;;22.93
74750;BMP280;63269;53.330;-6.288;2023-07-31T07:37:24;99928.72;;;22.92
74750;BMP280;63269;53.330;-6.288;2023-07-31T07:39:50;99926.03;;;22.92
74750;BMP280;63269;53.330;-6.288;2023-07-31T07:42:15;99907.78;;;22.90
74750;BMP280;63269;53.330;-6.288;2023-07-31T07:44:41;99918.03;;;22.92
74750;BMP280;63269;53.330;-6.288;2023-07-31T07:47:06;99903.91;;;22.91
74750;BMP280;63269;53.330;-6.288;2023-07-31T07:49:33;99897.81;;;22.91
74750;BMP280;63269;53.330;-6.288;2023-07-31T07:51:59;99898.56;;;22.91
74750;BMP280;63269;53.330;-6.288;2023-07-31T07:54:25;99897.81;;;22.91
74750;BMP280;63269;53.330;-6.288;2023-07-31T07:56:50;99894.91;;;22.89
74750;BMP280;63269;53.330;-6.288;2023-07-31T07:59:15;99895.16;;;22.91
74750;BMP280;63269;53.330;-6.288;2023-07-31T08:01:41;99883.72;;;22.90
74750;BMP280;63269;53.330;-6.288;2023-07-31T08:04:06;99886.41;;;22.90
74750;BMP280;63269;53.330;-6.288;2023-07-31T08:06:32;99886.41;;;22.90
74750;BMP280;63269;53.330;-6.288;2023-07-31T08:08:57;99907.78;;;22.90
74750;BMP280;63269;53.330;-6.288;2023-07-31T08:11:23;99907.78;;;22.90
74750;BMP280;63269;53.330;-6.288;2023-07-31T08:13:49;99899.75;;;22.90
74750;BMP280;63269;53.330;-6.288;2023-07-31T08:16:15;99897.34;;;22.92
74750;BMP280;63269;53.330;-6.288;2023-07-31T08:18:40;99918.75;;;22.92
74750;BMP280;63269;53.330;-6.288;2023-07-31T08:21:07;99935.06;;;22.94
74750;BMP280;63269;53.330;-6.288;2023-07-31T08:23:32;99940.91;;;22.93
74750;BMP280;63269;53.330;-6.288;2023-07-31T08:25:58;99941.16;;;22.95
74750;BMP280;63269;53.330;-6.288;2023-07-31T08:28:23;99941.91;;;22.95
74750;BMP280;63269;53.330;-6.288;2023-07-31T08:30:49;99957.94;;;22.95
74750;BMP280;63269;53.330;-6.288;2023-07-31T08:33:15;99959.41;;;22.96
74750;BMP280;63269;53.330;-6.288;2023-07-31T08:35:41;99956.72;;;22.96
74750;BMP280;63269;53.330;-6.288;2023-07-31T08:38:06;99959.13;;;22.94
74750;BMP280;63269;53.330;-6.288;2023-07-31T08:40:36;99954.81;;;22.97
74750;BMP280;63269;53.330;-6.288;2023-07-31T08:43:02;99939.22;;;22.95
74750;BMP280;63269;53.330;-6.288;2023-07-31T08:45:28;99938.78;;;22.97
74750;BMP280;63269;53.330;-6.288;2023-07-31T08:47:55;99940.69;;;22.96
74750;BMP280;63269;53.330;-6.288;2023-07-31T08:50:21;99940.69;;;22.96
74750;BMP280;63269;53.330;-6.288;2023-07-31T08:52:48;99930.44;;;22.95
74750;BMP280;63269;53.330;-6.288;2023-07-31T08:55:14;99934.84;;;22.98
74750;BMP280;63269;53.330;-6.288;2023-07-31T08:57:42;99925.41;;;22.97
74750;BMP280;63269;53.330;-6.288;2023-07-31T09:00:09;99925.41;;;22.97
74750;BMP280;63269;53.330;-6.288;2023-07-31T09:02:42;99908.59;;;22.96
74750;BMP280;63269;53.330;-6.288;2023-07-31T09:05:09;99901.34;;;22.97
74750;BMP280;63269;53.330;-6.288;2023-07-31T09:07:36;99901.34;;;22.97
74750;BMP280;63269;53.330;-6.288;2023-07-31T09:10:03;99901.34;;;22.97
74750;BMP280;63269;53.330;-6.288;2023-07-31T09:12:28;99902.53;;;22.96
74750;BMP280;63269;53.330;-6.288;2023-07-31T09:14:56;99897.91;;;22.96
74750;BMP280;63269;53.330;-6.288;2023-07-31T09:17:36;99897.91;;;22.96
74750;BMP280;63269;53.330;-6.288;2023-07-31T09:20:27;99903.25;;;22.96
74750;BMP280;63269;53.330;-6.288;2023-07-31T09:22:54;99903.25;;;22.96
74750;BMP280;63269;53.330;-6.288;2023-07-31T09:25:21;99911.72;;;22.95
74750;BMP280;63269;53.330;-6.288;2023-07-31T09:27:52;99919.28;;;22.96
74750;BMP280;63269;53.330;-6.288;2023-07-31T09:30:18;99928.53;;;22.95
74750;BMP280;63269;53.330;-6.288;2023-07-31T09:32:48;99928.53;;;22.95
74750;BMP280;63269;53.330;-6.288;2023-07-31T09:35:18;99938.47;;;22.95
74750;BMP280;63269;53.330;-6.288;2023-07-31T09:37:57;99944.56;;;22.95
74750;BMP280;63269;53.330;-6.288;2023-07-31T09:40:27;99952.59;;;22.95
74750;BMP280;63269;53.330;-6.288;2023-07-31T09:42:58;99952.59;;;22.95
74750;BMP280;63269;53.330;-6.288;2023-07-31T09:45:24;99953.78;;;22.94
74750;BMP280;63269;53.330;-6.288;2023-07-31T09:47:50;99951.84;;;22.95
74750;BMP280;63269;53.330;-6.288;2023-07-31T09:50:15;99943.81;;;22.95
74750;BMP280;63269;53.330;-6.288;2023-07-31T09:52:41;99943.81;;;22.95
74750;BMP280;63269;53.330;-6.288;2023-07-31T09:55:09;99952.31;;;22.93
74750;BMP280;63269;53.330;-6.288;2023-07-31T09:57:44;99947.72;;;22.94
74750;BMP280;63269;53.330;-6.288;2023-07-31T10:00:11;99947.72;;;22.94
74750;BMP280;63269;53.330;-6.288;2023-07-31T10:02:37;99950.09;;;22.92
74750;BMP280;63269;53.330;-6.288;2023-07-31T10:05:03;99937.94;;;22.91
74750;BMP280;63269;53.330;-6.288;2023-07-31T10:07:31;99924.09;;;22.92
74750;BMP280;63269;53.330;-6.288;2023-07-31T10:10:00;99924.09;;;22.92
74750;BMP280;63269;53.330;-6.288;2023-07-31T10:12:27;99922.19;;;22.93
74750;BMP280;63269;53.330;-6.288;2023-07-31T10:14:55;99918.75;;;22.92
74750;BMP280;63269;53.330;-6.288;2023-07-31T10:17:22;99916.53;;;22.91
74750;BMP280;63269;53.330;-6.288;2023-07-31T10:19:49;99914.63;;;22.91
74750;BMP280;63269;53.330;-6.288;2023-07-31T10:22:15;99928.00;;;22.91
74750;BMP280;63269;53.330;-6.288;2023-07-31T10:24:45;99902.44;;;22.90
74750;BMP280;63269;53.330;-6.288;2023-07-31T10:27:10;99905.84;;;22.91
74750;BMP280;63269;53.330;-6.288;2023-07-31T10:29:38;99905.84;;;22.91
74750;BMP280;63269;53.330;-6.288;2023-07-31T10:32:05;99915.81;;;22.90
74750;BMP280;63269;53.330;-6.288;2023-07-31T10:34:34;99923.09;;;22.90
74750;BMP280;63269;53.330;-6.288;2023-07-31T10:37:29;99918.75;;;22.92
74750;BMP280;63269;53.330;-6.288;2023-07-31T10:39:56;99931.84;;;22.90
74750;BMP280;63269;53.330;-6.288;2023-07-31T10:42:30;99931.84;;;22.90
74750;BMP280;63269;53.330;-6.288;2023-07-31T10:45:00;99931.84;;;22.90
74750;BMP280;63269;53.330;-6.288;2023-07-31T10:47:26;99931.84;;;22.90
74750;BMP280;63269;53.330;-6.288;2023-07-31T10:49:52;99938.41;;;22.89
74750;BMP280;63269;53.330;-6.288;2023-07-31T10:52:21;99919.97;;;22.91
74750;BMP280;63269;53.330;-6.288;2023-07-31T10:54:49;99919.97;;;22.91
74750;BMP280;63269;53.330;-6.288;2023-07-31T10:57:21;99918.03;;;22.92
74750;BMP280;63269;53.330;-6.288;2023-07-31T10:59:48;99910.47;;;22.90
74750;BMP280;63269;53.330;-6.288;2023-07-31T11:02:27;99910.47;;;22.90
74750;BMP280;63269;53.330;-6.288;2023-07-31T11:05:08;99899.75;;;22.90
74750;BMP280;63269;53.330;-6.288;2023-07-31T11:07:50;99905.13;;;22.90
74750;BMP280;63269;53.330;-6.288;2023-07-31T11:10:19;99905.13;;;22.90
74750;BMP280;63269;53.330;-6.288;2023-07-31T11:12:47;99898.31;;;22.89
74750;BMP280;63269;53.330;-6.288;2023-07-31T11:15:12;99900.97;;;22.89
74750;BMP280;63269;53.330;-6.288;2023-07-31T11:17:39;99898.31;;;22.89
74750;BMP280;63269;53.330;-6.288;2023-07-31T11:20:06;99900.25;;;22.89
74750;BMP280;63269;53.330;-6.288;2023-07-31T11:22:34;99894.91;;;22.89
74750;BMP280;63269;53.330;-6.288;2023-07-31T11:24:59;99895.63;;;22.89
74750;BMP280;63269;53.330;-6.288;2023-07-31T11:27:27;99897.56;;;22.89
74750;BMP280;63269;53.330;-6.288;2023-07-31T11:30:00;99903.66;;;22.89
74750;BMP280;63269;53.330;-6.288;2023-07-31T11:32:26;99904.38;;;22.90
74750;BMP280;63269;53.330;-6.288;2023-07-31T11:34:55;99906.34;;;22.89
74750;BMP280;63269;53.330;-6.288;2023-07-31T11:37:20;99901.72;;;22.90
74750;BMP280;63269;53.330;-6.288;2023-07-31T11:39:59;99901.72;;;22.90
74750;BMP280;63269;53.330;-6.288;2023-07-31T11:42:25;99900.25;;;22.89
74750;BMP280;63269;53.330;-6.288;2023-07-31T11:44:50;99900.25;;;22.89
74750;BMP280;63269;53.330;-6.288;2023-07-31T11:47:16;99892.97;;;22.89
74750;BMP280;63269;53.330;-6.288;2023-07-31T11:49:42;99892.97;;;22.89
74750;BMP280;63269;53.330;-6.288;2023-07-31T11:52:08;99876.91;;;22.89
74750;BMP280;63269;53.330;-6.288;2023-07-31T11:54:34;99888.34;;;22.90
74750;BMP280;63269;53.330;-6.288;2023-07-31T11:57:00;99887.63;;;22.89
74750;BMP280;63269;53.330;-6.288;2023-07-31T11:59:26;99895.16;;;22.91
74750;BMP280;63269;53.330;-6.288;2023-07-31T12:01:52;99885.66;;;22.90
74750;BMP280;63269;53.330;-6.288;2023-07-31T12:04:19;99881.78;;;22.91
74750;BMP280;63269;53.330;-6.288;2023-07-31T12:06:47;99896.63;;;22.92
74750;BMP280;63269;53.330;-6.288;2023-07-31T12:09:14;99898.56;;;22.91
74750;BMP280;63269;53.330;-6.288;2023-07-31T12:11:47;99881.31;;;22.92
74750;BMP280;63269;53.330;-6.288;2023-07-31T12:14:23;99886.66;;;22.92
74750;BMP280;63269;53.330;-6.288;2023-07-31T12:17:04;99886.66;;;22.92
74750;BMP280;63269;53.330;-6.288;2023-07-31T12:19:29;99870.63;;;22.92
74750;BMP280;63269;53.330;-6.288;2023-07-31T12:21:59;99870.63;;;22.92
74750;BMP280;63269;53.330;-6.288;2023-07-31T12:24:28;99862.59;;;22.92
74750;BMP280;63269;53.330;-6.288;2023-07-31T12:26:54;99850.44;;;22.91
74750;BMP280;63269;53.330;-6.288;2023-07-31T12:29:20;99848.50;;;22.92
74750;BMP280;63269;53.330;-6.288;2023-07-31T12:31:46;99857.25;;;22.92
74750;BMP280;63269;53.330;-6.288;2023-07-31T12:34:18;99857.25;;;22.92
74750;BMP280;63269;53.330;-6.288;2023-07-31T12:36:46;99845.34;;;22.93
74750;BMP280;63269;53.330;-6.288;2023-07-31T12:39:14;99845.34;;;22.93
74750;BMP280;63269;53.330;-6.288;2023-07-31T12:41:40;99826.63;;;22.93
74750;BMP280;63269;53.330;-6.288;2023-07-31T12:44:05;99826.63;;;22.93
74750;BMP280;63269;53.330;-6.288;2023-07-31T12:46:31;99827.84;;;22.92
74750;BMP280;63269;53.330;-6.288;2023-07-31T12:48:56;99821.56;;;22.95
74750;BMP280;63269;53.330;-6.288;2023-07-31T12:51:21;99821.56;;;22.95
74750;BMP280;63269;53.330;-6.288;2023-07-31T12:53:47;99817.41;;;22.94
74750;BMP280;63269;53.330;-6.288;2023-07-31T12:56:12;99808.66;;;22.94
74750;BMP280;63269;53.330;-6.288;2023-07-31T12:58:38;99813.53;;;22.95
74750;BMP280;63269;53.330;-6.288;2023-07-31T13:01:03;99824.25;;;22.95
74750;BMP280;63269;53.330;-6.288;2023-07-31T13:03:29;99809.66;;;22.96
74750;BMP280;63269;53.330;-6.288;2023-07-31T13:05:54;99810.41;;;22.97
74750;BMP280;63269;53.330;-6.288;2023-07-31T13:08:20;99803.38;;;22.99
74750;BMP280;63269;53.330;-6.288;2023-07-31T13:10:45;99803.38;;;22.99
74750;BMP280;63269;53.330;-6.288;2023-07-31T13:13:11;99809.47;;;23.00
74750;BMP280;63269;53.330;-6.288;2023-07-31T13:15:36;99806.28;;;23.01
74750;BMP280;63269;53.330;-6.288;2023-07-31T13:18:02;99794.13;;;23.00
74750;BMP280;63269;53.330;-6.288;2023-07-31T13:20:27;99800.94;;;23.01
74750;BMP280;63269;53.330;-6.288;2023-07-31T13:22:53;99795.13;;;23.03
74750;BMP280;63269;53.330;-6.288;2023-07-31T13:25:18;99795.13;;;23.03
74750;BMP280;63269;53.330;-6.288;2023-07-31T13:27:44;99793.94;;;23.04
74750;BMP280;63269;53.330;-6.288;2023-07-31T13:30:09;99793.94;;;23.04
74750;BMP280;63269;53.330;-6.288;2023-07-31T13:32:35;99779.09;;;23.03
74750;BMP280;63269;53.330;-6.288;2023-07-31T13:35:07;99774.72;;;23.05
74750;BMP280;63269;53.330;-6.288;2023-07-31T13:37:33;99766.72;;;23.05
74750;BMP280;63269;53.330;-6.288;2023-07-31T13:39:59;99770.09;;;23.06
74750;BMP280;63269;53.330;-6.288;2023-07-31T13:42:25;99770.09;;;23.06
74750;BMP280;63269;53.330;-6.288;2023-07-31T13:44:50;99769.38;;;23.05
74750;BMP280;63269;53.330;-6.288;2023-07-31T13:47:16;99787.63;;;23.07
74750;BMP280;63269;53.330;-6.288;2023-07-31T13:49:41;99787.63;;;23.07
74750;BMP280;63269;53.330;-6.288;2023-07-31T13:52:08;99784.25;;;23.06
74750;BMP280;63269;53.330;-6.288;2023-07-31T13:54:34;99773.53;;;23.06
74750;BMP280;63269;53.330;-6.288;2023-07-31T13:56:59;99774.28;;;23.07
74750;BMP280;63269;53.330;-6.288;2023-07-31T13:59:25;99761.63;;;23.08